createdAt,value
2022-12-20T00:00:44.941Z,4.02
2022-12-20T00:01:45.036Z,4.04
2022-12-20T00:02:44.936Z,4.06
2022-12-20T00:03:44.932Z,4.06
2022-12-20T00:04:44.885Z,4.08
2022-12-20T00:05:44.925Z,4.08
2022-12-20T00:06:44.882Z,4.07
2022-12-20T00:07:44.910Z,4.08
2022-12-20T00:08:44.849Z,4.11
2022-12-20T00:09:44.837Z,4.11
2022-12-20T00:10:44.847Z,4.11
2022-12-20T00:11:44.837Z,4.11
2022-12-20T00:12:44.805Z,4.13
2022-12-20T00:13:44.809Z,4.17
2022-12-20T00:14:44.781Z,4.18
2022-12-20T00:15:45.112Z,4.18
2022-12-20T00:16:44.908Z,4.20
2022-12-20T00:17:44.792Z,4.17
2022-12-20T00:18:44.730Z,4.17
2022-12-20T00:19:44.797Z,4.18
2022-12-20T00:20:44.757Z,4.18
2022-12-20T00:21:45.062Z,4.17
2022-12-20T00:22:44.694Z,4.16
2022-12-20T00:23:44.704Z,4.17
2022-12-20T00:24:44.670Z,4.16
2022-12-20T00:25:44.690Z,4.16
2022-12-20T00:26:44.668Z,4.14
2022-12-20T00:27:44.664Z,4.16
2022-12-20T00:28:44.645Z,4.16
2022-12-20T00:29:44.653Z,4.13
2022-12-20T00:30:44.621Z,4.16
2022-12-20T00:31:44.720Z,4.17
2022-12-20T00:32:44.645Z,4.17
2022-12-20T00:33:44.593Z,4.16
2022-12-20T00:34:44.603Z,4.17
2022-12-20T00:35:44.581Z,4.17
2022-12-20T00:36:44.592Z,4.17
2022-12-20T00:37:44.529Z,4.17
2022-12-20T00:38:44.577Z,4.14
2022-12-20T00:39:44.530Z,4.17
2022-12-20T00:40:44.513Z,4.18
2022-12-20T00:41:44.513Z,4.16
2022-12-20T00:42:44.481Z,4.16
2022-12-20T00:43:44.523Z,4.16
2022-12-20T00:44:44.481Z,4.16
2022-12-20T00:45:44.516Z,4.16
2022-12-20T00:46:44.511Z,4.18
2022-12-20T00:47:44.465Z,4.18
2022-12-20T00:48:44.431Z,4.17
2022-12-20T00:49:44.412Z,4.21
2022-12-20T00:50:44.419Z,4.21
2022-12-20T00:51:44.400Z,4.24
2022-12-20T00:52:44.416Z,4.24
2022-12-20T00:53:44.374Z,4.21
2022-12-20T00:54:44.351Z,4.24
2022-12-20T00:55:44.416Z,4.25
2022-12-20T00:56:44.387Z,4.26
2022-12-20T00:57:44.367Z,4.26
2022-12-20T00:58:44.334Z,4.28
2022-12-20T00:59:44.404Z,4.26
2022-12-20T01:00:45.991Z,4.25
2022-12-20T01:01:44.528Z,4.28
2022-12-20T01:02:44.516Z,4.26
2022-12-20T01:03:44.331Z,4.28
2022-12-20T01:04:44.262Z,4.26
2022-12-20T01:05:44.257Z,4.28
2022-12-20T01:06:44.238Z,4.28
2022-12-20T01:07:44.232Z,4.31
2022-12-20T01:08:44.216Z,4.28
2022-12-20T01:09:44.303Z,4.28
2022-12-20T01:10:44.212Z,4.28
2022-12-20T01:11:44.188Z,4.28
2022-12-20T01:12:44.198Z,4.31
2022-12-20T01:13:44.196Z,4.29
2022-12-20T01:14:44.165Z,4.26
2022-12-20T01:15:44.204Z,4.26
2022-12-20T01:16:44.260Z,4.28
2022-12-20T01:17:44.125Z,4.29
2022-12-20T01:18:44.131Z,4.29
2022-12-20T01:19:44.115Z,4.28
2022-12-20T01:20:44.124Z,4.28
2022-12-20T01:21:44.092Z,4.28
2022-12-20T01:22:47.670Z,4.29
2022-12-20T01:23:44.057Z,4.32
2022-12-20T01:24:44.061Z,4.31
2022-12-20T01:25:44.124Z,4.32
2022-12-20T01:26:44.043Z,4.35
2022-12-20T01:27:44.012Z,4.34
2022-12-20T01:28:44.016Z,4.34
2022-12-20T01:29:44.029Z,4.32
2022-12-20T01:30:44.021Z,4.32
2022-12-20T01:31:44.046Z,4.31
2022-12-20T01:32:43.987Z,4.35
2022-12-20T01:33:43.975Z,4.35
2022-12-20T01:34:43.956Z,4.32
2022-12-20T01:35:43.983Z,4.32
2022-12-20T01:36:44.028Z,4.34
2022-12-20T01:37:43.941Z,4.32
2022-12-20T01:38:43.958Z,4.32
2022-12-20T01:39:43.888Z,4.32
2022-12-20T01:40:43.931Z,4.32
2022-12-20T01:41:43.868Z,4.36
2022-12-20T01:42:43.874Z,4.35
2022-12-20T01:43:43.862Z,4.34
2022-12-20T01:44:43.855Z,4.34
2022-12-20T01:45:43.920Z,4.36
2022-12-20T01:46:43.866Z,4.38
2022-12-20T01:47:43.824Z,4.38
2022-12-20T01:48:43.817Z,4.42
2022-12-20T01:49:43.794Z,4.39
2022-12-20T01:50:43.871Z,4.39
2022-12-20T01:51:43.803Z,4.38
2022-12-20T01:52:43.800Z,4.36
2022-12-20T01:53:43.748Z,4.34
2022-12-20T01:54:43.777Z,4.34
2022-12-20T01:55:43.775Z,4.34
2022-12-20T01:56:43.780Z,4.34
2022-12-20T01:57:43.724Z,4.34
2022-12-20T01:58:43.756Z,4.34
2022-12-20T01:59:43.683Z,4.34
2022-12-20T02:00:43.857Z,4.36
2022-12-20T02:01:43.806Z,4.35
2022-12-20T02:02:43.853Z,4.36
2022-12-20T02:03:43.740Z,4.38
2022-12-20T02:04:43.678Z,4.36
2022-12-20T02:05:43.655Z,4.38
2022-12-20T02:06:43.625Z,4.42
2022-12-20T02:07:43.620Z,4.42
2022-12-20T02:08:43.617Z,4.36
2022-12-20T02:09:43.654Z,4.42
2022-12-20T02:10:43.638Z,4.44
2022-12-20T02:11:43.577Z,4.46
2022-12-20T02:12:43.571Z,4.44
2022-12-20T02:13:43.558Z,4.47
2022-12-20T02:14:43.645Z,4.47
2022-12-20T02:15:43.541Z,4.44
2022-12-20T02:16:43.604Z,4.44
2022-12-20T02:17:43.521Z,4.46
2022-12-20T02:18:43.531Z,4.47
2022-12-20T02:19:43.542Z,4.49
2022-12-20T02:20:43.503Z,4.51
2022-12-20T02:21:43.478Z,4.51
2022-12-20T02:22:43.475Z,4.49
2022-12-20T02:23:43.462Z,4.53
2022-12-20T02:24:43.473Z,4.54
2022-12-20T02:25:43.448Z,4.57
2022-12-20T02:26:43.428Z,4.51
2022-12-20T02:27:43.422Z,4.53
2022-12-20T02:28:43.430Z,4.54
2022-12-20T02:29:43.390Z,4.54
2022-12-20T02:30:43.453Z,4.56
2022-12-20T02:31:43.569Z,4.56
2022-12-20T02:32:43.366Z,4.57
2022-12-20T02:33:43.348Z,4.57
2022-12-20T02:34:43.398Z,4.59
2022-12-20T02:35:43.351Z,4.59
2022-12-20T02:36:43.330Z,4.61
2022-12-20T02:37:43.361Z,4.61
2022-12-20T02:38:43.329Z,4.62
2022-12-20T02:39:43.294Z,4.62
2022-12-20T02:40:43.376Z,4.62
2022-12-20T02:41:43.263Z,4.64
2022-12-20T02:42:43.258Z,4.64
2022-12-20T02:43:43.291Z,4.65
2022-12-20T02:44:43.306Z,4.62
2022-12-20T02:45:43.280Z,4.64
2022-12-20T02:46:43.223Z,4.67
2022-12-20T02:47:43.229Z,4.65
2022-12-20T02:48:43.232Z,4.68
2022-12-20T02:49:43.193Z,4.69
2022-12-20T02:50:43.223Z,4.68
2022-12-20T02:51:43.231Z,4.71
2022-12-20T02:52:43.145Z,4.71
2022-12-20T02:53:43.297Z,4.71
2022-12-20T02:54:43.145Z,4.68
2022-12-20T02:55:43.139Z,4.69
2022-12-20T02:56:43.175Z,4.72
2022-12-20T02:57:43.119Z,4.72
2022-12-20T02:58:43.099Z,4.75
2022-12-20T02:59:43.138Z,4.77
2022-12-20T03:00:43.111Z,4.77
2022-12-20T03:01:43.155Z,4.77
2022-12-20T03:02:43.149Z,4.79
2022-12-20T03:03:43.110Z,4.79
2022-12-20T03:04:43.021Z,4.79
2022-12-20T03:05:43.023Z,4.79
2022-12-20T03:06:43.005Z,4.77
2022-12-20T03:07:43.032Z,4.80
2022-12-20T03:08:42.993Z,4.80
2022-12-20T03:09:43.010Z,4.83
2022-12-20T03:10:43.009Z,4.83
2022-12-20T03:11:42.953Z,4.84
2022-12-20T03:12:42.951Z,4.86
2022-12-20T03:13:42.952Z,4.86
2022-12-20T03:14:42.917Z,4.87
2022-12-20T03:15:42.930Z,4.87
2022-12-20T03:16:42.935Z,4.86
2022-12-20T03:17:42.882Z,4.87
2022-12-20T03:18:42.889Z,4.88
2022-12-20T03:19:42.892Z,4.88
2022-12-20T03:20:42.910Z,4.87
2022-12-20T03:21:42.857Z,4.90
2022-12-20T03:22:42.852Z,4.90
2022-12-20T03:23:42.840Z,4.90
2022-12-20T03:24:42.824Z,4.90
2022-12-20T03:25:42.818Z,4.93
2022-12-20T03:26:42.840Z,4.93
2022-12-20T03:27:42.814Z,4.94
2022-12-20T03:28:42.770Z,4.94
2022-12-20T03:29:42.759Z,4.96
2022-12-20T03:30:42.782Z,4.97
2022-12-20T03:31:42.756Z,4.97
2022-12-20T03:32:42.721Z,4.99
2022-12-20T03:33:42.710Z,4.97
2022-12-20T03:34:42.706Z,4.99
2022-12-20T03:35:42.697Z,4.97
2022-12-20T03:36:42.751Z,4.96
2022-12-20T03:37:42.687Z,4.99
2022-12-20T03:38:42.669Z,4.99
2022-12-20T03:39:42.662Z,4.99
2022-12-20T03:40:42.705Z,4.99
2022-12-20T03:41:42.689Z,5.01
2022-12-20T03:42:42.662Z,5.04
2022-12-20T03:43:42.608Z,5.05
2022-12-20T03:44:42.690Z,5.05
2022-12-20T03:45:42.606Z,5.05
2022-12-20T03:46:42.708Z,5.05
2022-12-20T03:47:42.654Z,5.06
2022-12-20T03:48:42.579Z,5.06
2022-12-20T03:49:42.573Z,5.09
2022-12-20T03:50:42.546Z,5.09
2022-12-20T03:51:42.567Z,5.09
2022-12-20T03:52:42.527Z,5.11
2022-12-20T03:53:42.582Z,5.11
2022-12-20T03:54:42.512Z,5.11
2022-12-20T03:55:45.308Z,5.12
2022-12-20T03:56:42.514Z,5.12
2022-12-20T03:57:42.465Z,5.12
2022-12-20T03:58:42.465Z,5.12
2022-12-20T03:59:42.443Z,5.12
2022-12-20T04:00:42.521Z,5.11
2022-12-20T04:01:42.550Z,5.09
2022-12-20T04:02:42.681Z,5.08
2022-12-20T04:03:42.456Z,5.09
2022-12-20T04:04:42.395Z,5.08
2022-12-20T04:05:42.399Z,5.08
2022-12-20T04:06:42.459Z,5.08
2022-12-20T04:07:42.395Z,5.08
2022-12-20T04:08:42.347Z,5.12
2022-12-20T04:09:42.363Z,5.08
2022-12-20T04:10:42.339Z,5.09
2022-12-20T04:11:42.378Z,5.09
2022-12-20T04:12:42.377Z,5.08
2022-12-20T04:13:42.360Z,5.09
2022-12-20T04:14:42.352Z,5.09
2022-12-20T04:15:42.468Z,5.12
2022-12-20T04:16:42.462Z,5.11
2022-12-20T04:17:42.352Z,5.09
2022-12-20T04:18:42.296Z,5.12
2022-12-20T04:19:42.242Z,5.12
2022-12-20T04:20:42.309Z,5.09
2022-12-20T04:21:42.363Z,5.12
2022-12-20T04:22:42.235Z,5.11
2022-12-20T04:23:42.227Z,5.09
2022-12-20T04:24:42.204Z,5.08
2022-12-20T04:25:42.207Z,5.08
2022-12-20T04:26:42.181Z,5.06
2022-12-20T04:27:42.154Z,5.08
2022-12-20T04:28:42.176Z,5.08
2022-12-20T04:29:42.135Z,5.05
2022-12-20T04:30:42.168Z,5.02
2022-12-20T04:31:42.192Z,5.04
2022-12-20T04:32:42.114Z,5.01
2022-12-20T04:33:42.117Z,4.97
2022-12-20T04:34:42.089Z,4.96
2022-12-20T04:35:42.072Z,4.96
2022-12-20T04:36:42.145Z,4.94
2022-12-20T04:37:42.069Z,4.97
2022-12-20T04:38:42.069Z,4.93
2022-12-20T04:39:42.069Z,4.91
2022-12-20T04:40:42.041Z,4.93
2022-12-20T04:41:42.051Z,4.96
2022-12-20T04:42:42.019Z,4.93
2022-12-20T04:43:42.007Z,4.90
2022-12-20T04:44:41.991Z,4.93
2022-12-20T04:45:41.986Z,4.88
2022-12-20T04:46:42.047Z,4.90
2022-12-20T04:47:41.947Z,4.88
2022-12-20T04:48:59.208Z,4.88
2022-12-20T04:49:41.952Z,4.88
2022-12-20T04:50:41.946Z,4.88
2022-12-20T04:51:41.939Z,4.88
2022-12-20T04:52:47.399Z,4.86
2022-12-20T04:53:41.916Z,4.87
2022-12-20T04:54:41.952Z,4.87
2022-12-20T04:55:41.881Z,4.88
2022-12-20T04:56:41.907Z,4.88
2022-12-20T04:57:41.848Z,4.87
2022-12-20T04:58:41.836Z,4.88
2022-12-20T04:59:41.859Z,4.87
2022-12-20T05:00:41.846Z,4.87
2022-12-20T05:01:42.021Z,4.84
2022-12-20T05:02:42.048Z,4.83
2022-12-20T05:03:41.985Z,4.83
2022-12-20T05:04:41.799Z,4.86
2022-12-20T05:05:41.802Z,4.86
2022-12-20T05:06:41.777Z,4.84
2022-12-20T05:07:41.739Z,4.86
2022-12-20T05:08:41.769Z,4.84
2022-12-20T05:09:41.724Z,4.80
2022-12-20T05:10:41.713Z,4.86
2022-12-20T05:11:41.755Z,4.84
2022-12-20T05:12:41.730Z,4.84
2022-12-20T05:13:41.703Z,4.88
2022-12-20T05:14:41.711Z,4.86
2022-12-20T05:15:41.731Z,4.84
2022-12-20T05:16:41.772Z,4.83
2022-12-20T05:17:41.655Z,4.84
2022-12-20T05:18:48.158Z,4.83
2022-12-20T05:19:41.659Z,4.83
2022-12-20T05:20:41.671Z,4.83
2022-12-20T05:21:41.647Z,4.87
2022-12-20T05:22:41.605Z,4.87
2022-12-20T05:23:41.615Z,4.88
2022-12-20T05:24:41.575Z,4.86
2022-12-20T05:25:41.557Z,4.90
2022-12-20T05:26:41.611Z,4.90
2022-12-20T05:27:41.567Z,4.90
2022-12-20T05:28:41.570Z,4.96
2022-12-20T05:29:41.527Z,4.94
2022-12-20T05:30:41.520Z,4.96
2022-12-20T05:31:41.592Z,4.96
2022-12-20T05:32:41.507Z,4.96
2022-12-20T05:33:41.487Z,4.99
2022-12-20T05:34:41.636Z,4.99
2022-12-20T05:35:41.484Z,4.97
2022-12-20T05:36:41.492Z,4.97
2022-12-20T05:37:41.511Z,4.99
2022-12-20T05:38:41.419Z,4.96
2022-12-20T05:39:41.426Z,4.97
2022-12-20T05:40:41.446Z,4.99
2022-12-20T05:41:41.413Z,4.97
2022-12-20T05:42:41.390Z,5.02
2022-12-20T05:43:41.396Z,5.02
2022-12-20T05:44:41.364Z,5.02
2022-12-20T05:45:41.374Z,5.02
2022-12-20T05:46:41.389Z,5.04
2022-12-20T05:47:41.379Z,5.02
2022-12-20T05:48:41.329Z,5.05
2022-12-20T05:49:41.312Z,5.08
2022-12-20T05:50:41.323Z,5.11
2022-12-20T05:51:41.340Z,5.08
2022-12-20T05:52:41.279Z,5.06
2022-12-20T05:53:41.296Z,5.06
2022-12-20T05:54:41.270Z,5.08
2022-12-20T05:55:41.289Z,5.08
2022-12-20T05:56:41.335Z,5.06
2022-12-20T05:57:41.256Z,5.04
2022-12-20T05:58:41.261Z,5.06
2022-12-20T05:59:41.258Z,5.05
2022-12-20T06:00:41.209Z,5.08
2022-12-20T06:01:41.483Z,5.05
2022-12-20T06:02:41.437Z,5.08
2022-12-20T06:03:41.480Z,5.06
2022-12-20T06:04:41.155Z,5.08
2022-12-20T06:05:41.165Z,5.11
2022-12-20T06:06:41.207Z,5.11
2022-12-20T06:07:41.176Z,5.12
2022-12-20T06:08:41.129Z,5.14
2022-12-20T06:09:41.128Z,5.14
2022-12-20T06:10:41.102Z,5.15
2022-12-20T06:11:41.135Z,5.17
2022-12-20T06:12:41.080Z,5.17
2022-12-20T06:13:41.111Z,5.19
2022-12-20T06:14:41.061Z,5.19
2022-12-20T06:15:41.143Z,5.22
2022-12-20T06:16:41.128Z,5.20
2022-12-20T06:17:41.034Z,5.23
2022-12-20T06:18:41.019Z,5.22
2022-12-20T06:19:41.016Z,5.24
2022-12-20T06:20:41.004Z,5.24
2022-12-20T06:21:41.145Z,5.29
2022-12-20T06:22:40.965Z,5.32
2022-12-20T06:23:40.971Z,5.32
2022-12-20T06:24:47.692Z,5.30
2022-12-20T06:25:40.989Z,5.30
2022-12-20T06:26:40.986Z,5.32
2022-12-20T06:27:40.937Z,5.33
2022-12-20T06:28:40.902Z,5.33
2022-12-20T06:29:40.903Z,5.33
2022-12-20T06:30:40.918Z,5.33
2022-12-20T06:31:40.972Z,5.35
2022-12-20T06:32:40.882Z,5.33
2022-12-20T06:33:40.876Z,5.37
2022-12-20T06:34:40.876Z,5.35
2022-12-20T06:35:40.944Z,5.38
2022-12-20T06:36:40.842Z,5.37
2022-12-20T06:37:40.837Z,5.42
2022-12-20T06:38:40.854Z,5.41
2022-12-20T06:39:40.902Z,5.44
2022-12-20T06:40:40.781Z,5.44
2022-12-20T06:41:40.828Z,5.44
2022-12-20T06:42:40.791Z,5.45
2022-12-20T06:43:40.714Z,5.42
2022-12-20T06:44:40.801Z,5.41
2022-12-20T06:45:42.080Z,5.40
2022-12-20T06:46:40.772Z,5.40
2022-12-20T06:47:40.687Z,5.40
2022-12-20T06:48:40.676Z,5.44
2022-12-20T06:49:40.665Z,5.42
2022-12-20T06:50:40.671Z,5.44
2022-12-20T06:51:40.673Z,5.42
2022-12-20T06:52:40.614Z,5.42
2022-12-20T06:53:40.623Z,5.42
2022-12-20T06:54:40.596Z,5.45
2022-12-20T06:55:40.602Z,5.45
2022-12-20T06:56:41.644Z,5.47
2022-12-20T06:57:40.562Z,5.45
2022-12-20T06:58:40.565Z,5.48
2022-12-20T06:59:40.626Z,5.48
2022-12-20T07:00:40.618Z,5.47
2022-12-20T07:01:40.651Z,5.48
2022-12-20T07:02:40.693Z,5.47
2022-12-20T07:03:40.593Z,5.47
2022-12-20T07:04:40.576Z,5.48
2022-12-20T07:05:40.507Z,5.45
2022-12-20T07:06:40.477Z,5.47
2022-12-20T07:07:44.883Z,5.49
2022-12-20T07:08:40.485Z,5.49
2022-12-20T07:09:40.444Z,5.47
2022-12-20T07:10:40.473Z,5.45
2022-12-20T07:11:40.474Z,5.45
2022-12-20T07:12:47.194Z,5.48
2022-12-20T07:13:40.426Z,5.49
2022-12-20T07:14:40.450Z,5.49
2022-12-20T07:15:40.417Z,5.51
2022-12-20T07:16:40.426Z,5.49
2022-12-20T07:17:40.417Z,5.52
2022-12-20T07:18:40.422Z,5.52
2022-12-20T07:19:43.098Z,5.52
2022-12-20T07:20:40.363Z,5.52
2022-12-20T07:21:40.332Z,5.55
2022-12-20T07:22:40.362Z,5.56
2022-12-20T07:23:40.328Z,5.58
2022-12-20T07:24:40.285Z,5.59
2022-12-20T07:25:40.304Z,5.58
2022-12-20T07:26:40.279Z,5.59
2022-12-20T07:27:40.289Z,5.59
2022-12-20T07:28:40.249Z,5.59
2022-12-20T07:29:40.289Z,5.59
2022-12-20T07:30:40.236Z,5.60
2022-12-20T07:31:40.302Z,5.60
2022-12-20T07:32:40.244Z,5.60
2022-12-20T07:33:40.212Z,5.63
2022-12-20T07:34:40.233Z,5.63
2022-12-20T07:35:40.179Z,5.63
2022-12-20T07:36:40.181Z,5.65
2022-12-20T07:37:40.266Z,5.63
2022-12-20T07:38:40.152Z,5.65
2022-12-20T07:39:40.154Z,5.65
2022-12-20T07:40:40.126Z,5.66
2022-12-20T07:41:40.127Z,5.66
2022-12-20T07:42:46.208Z,5.66
2022-12-20T07:43:40.153Z,5.66
2022-12-20T07:44:40.079Z,5.66
2022-12-20T07:45:40.113Z,5.66
2022-12-20T07:46:40.142Z,5.67
2022-12-20T07:47:40.086Z,5.69
2022-12-20T07:48:40.066Z,5.69
2022-12-20T07:49:40.064Z,5.67
2022-12-20T07:50:40.034Z,5.67
2022-12-20T07:51:40.024Z,5.70
2022-12-20T07:52:40.157Z,5.69
2022-12-20T07:53:40.279Z,5.67
2022-12-20T07:54:40.395Z,5.69
2022-12-20T07:55:40.571Z,5.69
2022-12-20T07:56:41.585Z,5.67
2022-12-20T07:57:39.981Z,5.69
2022-12-20T07:58:39.947Z,5.67
2022-12-20T07:59:40.306Z,5.66
2022-12-20T08:00:40.104Z,5.67
2022-12-20T08:01:40.081Z,5.69
2022-12-20T08:02:40.244Z,5.70
2022-12-20T08:03:40.107Z,5.69
2022-12-20T08:04:39.883Z,5.69
2022-12-20T08:05:39.888Z,5.67
2022-12-20T08:06:39.869Z,5.69
2022-12-20T08:07:39.871Z,5.69
2022-12-20T08:08:39.872Z,5.67
2022-12-20T08:09:39.927Z,5.69
2022-12-20T08:10:39.847Z,5.70
2022-12-20T08:11:39.815Z,5.73
2022-12-20T08:12:39.844Z,5.73
2022-12-20T08:13:46.010Z,5.73
2022-12-20T08:14:39.805Z,5.73
2022-12-20T08:15:39.797Z,5.73
2022-12-20T08:16:39.782Z,5.74
2022-12-20T08:17:39.870Z,5.73
2022-12-20T08:18:39.745Z,5.74
2022-12-20T08:19:39.984Z,5.73
2022-12-20T08:20:39.720Z,5.74
2022-12-20T08:21:39.711Z,5.73
2022-12-20T08:22:39.770Z,5.74
2022-12-20T08:23:39.682Z,5.75
2022-12-20T08:24:39.700Z,5.77
2022-12-20T08:25:42.114Z,5.78
2022-12-20T08:26:39.689Z,5.78
2022-12-20T08:27:39.733Z,5.77
2022-12-20T08:28:39.653Z,5.78
2022-12-20T08:29:39.626Z,5.80
2022-12-20T08:30:39.644Z,5.78
2022-12-20T08:31:43.117Z,5.80
2022-12-20T08:32:39.647Z,5.83
2022-12-20T08:33:39.584Z,5.81
2022-12-20T08:34:39.614Z,5.81
2022-12-20T08:35:39.617Z,5.81
2022-12-20T08:36:39.588Z,5.80
2022-12-20T08:37:39.606Z,5.80
2022-12-20T08:38:39.548Z,5.81
2022-12-20T08:39:39.527Z,5.83
2022-12-20T08:40:39.507Z,5.83
2022-12-20T08:41:39.540Z,5.81
2022-12-20T08:42:39.648Z,5.83
2022-12-20T08:43:39.503Z,5.83
2022-12-20T08:44:39.466Z,5.84
2022-12-20T08:45:39.493Z,5.83
2022-12-20T08:46:39.526Z,5.85
2022-12-20T08:47:39.469Z,5.84
2022-12-20T08:48:39.440Z,5.85
2022-12-20T08:49:45.718Z,5.85
2022-12-20T08:50:39.444Z,5.84
2022-12-20T08:51:39.449Z,5.87
2022-12-20T08:52:39.403Z,5.85
2022-12-20T08:53:39.379Z,5.87
2022-12-20T08:54:39.377Z,5.88
2022-12-20T08:55:39.363Z,5.90
2022-12-20T08:56:39.365Z,5.92
2022-12-20T08:57:39.354Z,5.92
2022-12-20T08:58:39.339Z,5.92
2022-12-20T08:59:39.348Z,5.93
2022-12-20T09:00:45.390Z,5.93
2022-12-20T09:01:41.062Z,5.93
2022-12-20T09:02:42.771Z,5.95
2022-12-20T09:03:39.380Z,5.96
2022-12-20T09:04:39.271Z,5.98
2022-12-20T09:05:39.269Z,5.96
2022-12-20T09:06:39.249Z,6.01
2022-12-20T09:07:39.267Z,6.03
2022-12-20T09:08:39.248Z,6.05
2022-12-20T09:09:39.227Z,6.06
2022-12-20T09:10:39.223Z,6.08
2022-12-20T09:11:39.207Z,6.08
2022-12-20T09:12:39.194Z,6.10
2022-12-20T09:13:43.689Z,6.10
2022-12-20T09:14:39.175Z,6.10
2022-12-20T09:15:39.205Z,6.14
2022-12-20T09:16:39.133Z,6.13
2022-12-20T09:17:39.147Z,6.16
2022-12-20T09:18:39.134Z,6.21
2022-12-20T09:19:39.136Z,6.24
2022-12-20T09:20:39.110Z,6.28
2022-12-20T09:21:39.105Z,6.33
2022-12-20T09:22:39.125Z,6.38
2022-12-20T09:23:39.078Z,6.45
2022-12-20T09:24:39.095Z,6.50
2022-12-20T09:25:39.102Z,6.48
2022-12-20T09:26:39.052Z,6.51
2022-12-20T09:27:39.053Z,6.50
2022-12-20T09:28:39.037Z,6.50
2022-12-20T09:29:39.030Z,6.48
2022-12-20T09:30:39.077Z,6.53
2022-12-20T09:31:39.075Z,6.54
2022-12-20T09:32:38.992Z,6.55
2022-12-20T09:33:39.000Z,6.55
2022-12-20T09:34:38.984Z,6.60
2022-12-20T09:35:38.957Z,6.64
2022-12-20T09:36:38.952Z,6.68
2022-12-20T09:37:38.972Z,6.73
2022-12-20T09:38:38.931Z,6.79
2022-12-20T09:39:38.922Z,6.81
2022-12-20T09:40:38.906Z,6.83
2022-12-20T09:41:38.917Z,6.87
2022-12-20T09:42:38.918Z,6.94
2022-12-20T09:43:38.878Z,6.96
2022-12-20T09:44:38.876Z,7.07
2022-12-20T09:45:38.895Z,7.09
2022-12-20T09:46:38.901Z,7.11
2022-12-20T09:47:38.873Z,7.16
2022-12-20T09:48:38.840Z,7.18
2022-12-20T09:49:38.813Z,7.18
2022-12-20T09:50:38.826Z,7.18
2022-12-20T09:51:38.819Z,7.19
2022-12-20T09:52:38.913Z,7.24
2022-12-20T09:53:38.783Z,7.24
2022-12-20T09:54:38.788Z,7.26
2022-12-20T09:55:38.805Z,7.26
2022-12-20T09:56:38.793Z,7.29
2022-12-20T09:57:38.741Z,7.27
2022-12-20T09:58:38.741Z,7.32
2022-12-20T09:59:42.254Z,7.33
2022-12-20T10:00:38.723Z,7.34
2022-12-20T10:01:40.368Z,7.36
2022-12-20T10:03:38.760Z,7.36
2022-12-20T10:04:38.882Z,7.34
2022-12-20T10:05:41.523Z,7.37
2022-12-20T10:06:38.726Z,7.37
2022-12-20T10:07:38.636Z,7.36
2022-12-20T10:08:38.650Z,7.36
2022-12-20T10:09:38.595Z,7.34
2022-12-20T10:10:38.619Z,7.34
2022-12-20T10:11:43.507Z,7.37
2022-12-20T10:12:38.626Z,7.34
2022-12-20T10:13:38.568Z,7.34
2022-12-20T10:14:38.592Z,7.36
2022-12-20T10:15:38.641Z,7.39
2022-12-20T10:16:38.568Z,7.42
2022-12-20T10:17:38.546Z,7.45
2022-12-20T10:18:38.586Z,7.51
2022-12-20T10:19:38.506Z,7.54
2022-12-20T10:20:38.534Z,7.55
2022-12-20T10:21:38.490Z,7.54
2022-12-20T10:22:38.492Z,7.54
2022-12-20T10:23:38.481Z,7.57
2022-12-20T10:24:38.457Z,7.58
2022-12-20T10:25:38.493Z,7.60
2022-12-20T10:26:38.431Z,7.58
2022-12-20T10:27:38.465Z,7.60
2022-12-20T10:28:38.411Z,7.58
2022-12-20T10:29:38.413Z,7.60
2022-12-20T10:30:38.426Z,7.63
2022-12-20T10:31:38.449Z,7.58
2022-12-20T10:32:38.405Z,7.60
2022-12-20T10:33:38.375Z,7.60
2022-12-20T10:34:43.523Z,7.66
2022-12-20T10:35:38.347Z,7.63
2022-12-20T10:36:38.343Z,7.62
2022-12-20T10:37:41.333Z,7.66
2022-12-20T10:38:38.339Z,7.66
2022-12-20T10:39:38.304Z,7.66
2022-12-20T10:41:20.077Z,7.69
2022-12-20T10:41:38.295Z,7.71
2022-12-20T10:42:38.262Z,7.67
2022-12-20T10:43:38.282Z,7.73
2022-12-20T10:44:38.249Z,7.74
2022-12-20T10:45:38.266Z,7.77
2022-12-20T10:46:38.374Z,7.85
2022-12-20T10:47:38.232Z,7.86
2022-12-20T10:48:38.222Z,7.91
2022-12-20T10:49:38.198Z,7.99
2022-12-20T10:50:38.188Z,8.07
2022-12-20T10:51:38.168Z,8.12
2022-12-20T10:52:38.183Z,8.13
2022-12-20T10:53:38.213Z,8.14
2022-12-20T10:54:38.217Z,8.20
2022-12-20T10:55:38.168Z,8.18
2022-12-20T10:56:38.152Z,8.27
2022-12-20T10:57:38.105Z,8.24
2022-12-20T10:58:38.114Z,8.25
2022-12-20T10:59:38.109Z,8.20
2022-12-20T11:00:38.083Z,8.21
2022-12-20T11:01:38.163Z,8.17
2022-12-20T11:02:41.209Z,8.20
2022-12-20T11:03:38.212Z,8.24
2022-12-20T11:04:38.040Z,8.27
2022-12-20T11:05:38.017Z,8.24
2022-12-20T11:06:38.020Z,8.28
2022-12-20T11:07:38.027Z,8.25
2022-12-20T11:08:47.310Z,8.29
2022-12-20T11:09:37.993Z,8.29
2022-12-20T11:10:37.996Z,8.32
2022-12-20T11:11:37.968Z,8.39
2022-12-20T11:12:37.970Z,8.40
2022-12-20T11:13:37.969Z,8.39
2022-12-20T11:14:39.706Z,8.36
2022-12-20T11:15:38.010Z,8.39
2022-12-20T11:16:38.072Z,8.36
2022-12-20T11:17:37.894Z,8.32
2022-12-20T11:18:37.922Z,8.29
2022-12-20T11:19:37.902Z,8.25
2022-12-20T11:20:37.889Z,8.25
2022-12-20T11:21:37.903Z,8.27
2022-12-20T11:22:37.861Z,8.27
2022-12-20T11:23:37.863Z,8.27
2022-12-20T11:24:37.828Z,8.27
2022-12-20T11:25:37.883Z,8.28
2022-12-20T11:26:37.831Z,8.28
2022-12-20T11:27:37.813Z,8.27
2022-12-20T11:28:37.818Z,8.29
2022-12-20T11:29:37.790Z,8.29
2022-12-20T11:30:37.764Z,8.31
2022-12-20T11:31:37.785Z,8.36
2022-12-20T11:32:40.653Z,8.37
2022-12-20T11:33:37.785Z,8.37
2022-12-20T11:34:37.735Z,8.37
2022-12-20T11:35:37.726Z,8.32
2022-12-20T11:36:37.731Z,8.31
2022-12-20T11:37:37.704Z,8.29
2022-12-20T11:38:37.719Z,8.32
2022-12-20T11:39:37.682Z,8.32
2022-12-20T11:40:37.675Z,8.34
2022-12-20T11:41:37.653Z,8.34
2022-12-20T11:42:37.674Z,8.39
2022-12-20T11:43:54.502Z,8.39
2022-12-20T11:44:40.139Z,8.40
2022-12-20T11:45:37.640Z,8.40
2022-12-20T11:46:37.633Z,8.47
2022-12-20T11:47:37.589Z,8.50
2022-12-20T11:48:37.620Z,8.52
2022-12-20T11:49:37.568Z,8.65
2022-12-20T11:50:37.570Z,8.80
2022-12-20T11:51:37.549Z,8.96
2022-12-20T11:52:37.568Z,9.06
2022-12-20T11:53:37.555Z,9.15
2022-12-20T11:54:37.535Z,9.12
2022-12-20T11:55:37.503Z,9.06
2022-12-20T11:56:43.821Z,8.97
2022-12-20T11:57:55.223Z,8.88
2022-12-20T11:58:37.498Z,8.83
2022-12-20T11:59:37.457Z,8.79
2022-12-20T12:00:37.463Z,8.78
2022-12-20T12:01:37.560Z,8.75
2022-12-20T12:02:37.550Z,8.63
2022-12-20T12:03:37.443Z,8.57
2022-12-20T12:04:37.431Z,8.49
2022-12-20T12:05:37.476Z,8.43
2022-12-20T12:06:37.419Z,8.43
2022-12-20T12:07:37.399Z,8.43
2022-12-20T12:08:37.394Z,8.42
2022-12-20T12:09:37.375Z,8.47
2022-12-20T12:10:37.385Z,8.50
2022-12-20T12:12:05.672Z,8.58
2022-12-20T12:12:37.391Z,8.58
2022-12-20T12:13:37.333Z,8.60
2022-12-20T12:14:37.328Z,8.61
2022-12-20T12:15:37.308Z,8.58
2022-12-20T12:16:37.354Z,8.54
2022-12-20T12:17:37.301Z,8.52
2022-12-20T12:18:37.319Z,8.49
2022-12-20T12:19:37.335Z,8.50
2022-12-20T12:20:37.316Z,8.49
2022-12-20T12:21:37.231Z,8.52
2022-12-20T12:22:37.254Z,8.52
2022-12-20T12:23:37.231Z,8.58
2022-12-20T12:24:37.260Z,8.63
2022-12-20T12:25:37.250Z,8.64
2022-12-20T12:26:37.225Z,8.65
2022-12-20T12:27:37.184Z,8.65
2022-12-20T12:28:37.184Z,8.65
2022-12-20T12:29:37.181Z,8.68
2022-12-20T12:30:37.159Z,8.65
2022-12-20T12:31:37.210Z,8.64
2022-12-20T12:32:37.191Z,8.63
2022-12-20T12:33:38.891Z,8.61
2022-12-20T12:34:37.162Z,8.61
2022-12-20T12:35:37.091Z,8.60
2022-12-20T12:36:37.086Z,8.61
2022-12-20T12:37:37.078Z,8.63
2022-12-20T12:38:37.062Z,8.61
2022-12-20T12:39:37.099Z,8.60
2022-12-20T12:40:37.060Z,8.60
2022-12-20T12:41:37.041Z,8.60
2022-12-20T12:42:37.025Z,8.57
2022-12-20T12:43:37.017Z,8.55
2022-12-20T12:44:37.025Z,8.58
2022-12-20T12:45:37.075Z,8.57
2022-12-20T12:46:37.067Z,8.58
2022-12-20T12:47:36.966Z,8.60
2022-12-20T12:48:36.963Z,8.65
2022-12-20T12:49:36.964Z,8.65
2022-12-20T12:50:36.943Z,8.67
2022-12-20T12:51:36.931Z,8.68
2022-12-20T12:52:36.983Z,8.64
2022-12-20T12:53:36.914Z,8.63
2022-12-20T12:54:36.991Z,8.58
2022-12-20T12:55:36.917Z,8.58
2022-12-20T12:56:45.838Z,8.54
2022-12-20T12:57:36.901Z,8.50
2022-12-20T12:58:38.203Z,8.46
2022-12-20T12:59:36.858Z,8.45
2022-12-20T13:00:36.862Z,8.45
2022-12-20T13:01:36.962Z,8.45
2022-12-20T13:02:37.076Z,8.43
2022-12-20T13:03:36.929Z,8.43
2022-12-20T13:04:36.852Z,8.43
2022-12-20T13:05:36.799Z,8.45
2022-12-20T13:06:36.791Z,8.52
2022-12-20T13:07:36.760Z,8.50
2022-12-20T13:08:36.783Z,8.52
2022-12-20T13:09:36.757Z,8.52
2022-12-20T13:10:36.770Z,8.55
2022-12-20T13:11:36.745Z,8.58
2022-12-20T13:12:36.749Z,8.58
2022-12-20T13:13:36.706Z,8.60
2022-12-20T13:14:36.697Z,8.60
2022-12-20T13:15:36.702Z,8.60
2022-12-20T13:17:10.336Z,8.54
2022-12-20T13:17:36.713Z,8.55
2022-12-20T13:18:36.647Z,8.50
2022-12-20T13:19:36.655Z,8.47